Chicago, Illinois
Traffic Map
Current Weather Conditions
Chicago, Illinois
Overcast
Overcast
73°
Feels Like: 73°
Wind Chill: 73° Ceiling: 11000
Heat Index: 73° Visibility: 10mi
Dew Point: 60° Wind: 7mph
Humidity: 64% Direction: 180° (S)
Pressure: 30.05in Gusts: 0mph
Raw Report DataKMDW 290753Z 18006KT 10SM BKN110 OVC250 23/16 A3005 RMK AO2 SLP166 T02280156
Traffic Incident Summary
Active as of:
Severity:
Category:
InformationThere was an issue retrieving the traffic information for this location. Please try a different location or try again shortly.
Advertisements
Track Severe Weather on mobile